Pouch Cove, Canada
Current Conditions -  °F | °C
As of 1:00 PM on Friday 24 Oct 2014 (Local Time) from CYYT Reporting Station
Drizzle Drizzle  
Wind Chill: 50°   Ceiling: 100
Heat Index: 50°   Visibility: 0.25mi
Dew Point: 50°   Wind: 14mph
Humidity: 100%   Direction: 80°E
Pressure: 29.9"   Gusts: NA
Location:  47.76°N, 52.76°W
Report Text: CYYT 241500Z 08012KT 1/4SM R11/2200FT/N -DZ FG VV001 10/10 A2990 RMK FG8 SLP127
Loading
Personal Weather Stations






























Interactive Weather Map New forecast layout! Learn more

10-Day Weather Forecast

Advertisements
Track Severe Weather on mobile